Time;durP1;ratioP1;P1;durP2;ratioP2;P2;SDS_P1;SDS_P2;PMS_P1;PMS_P2;Temp;Humidity;BMP_temperature;BMP_pressure;BME280_temperature;BME280_humidity;BME280_pressure;Samples;Min_cycle;Max_cycle;Signal;HPM_P1;HPM_P2
2022/03/29 00:00:38;;;;;;;26.63;16.90;;;6.90;99.90;;;;;;4993459;28;20451;-69
2022/03/29 00:03:08;;;;;;;26.15;16.13;;;;;;;;;;4994124;28;20030;-69
2022/03/29 00:05:35;;;;;;;27.48;17.17;;;7.20;99.90;;;;;;4993948;28;20542;-69
2022/03/29 00:08:01;;;;;;;30.25;17.33;;;7.10;99.90;;;;;;4993788;28;20515;-69
2022/03/29 00:10:27;;;;;;;28.08;15.73;;;7.20;99.90;;;;;;4999958;28;20224;-69
2022/03/29 00:12:53;;;;;;;33.00;16.75;;;7.20;99.90;;;;;;5028984;28;20055;-69
2022/03/29 00:15:20;;;;;;;37.97;18.15;;;;;;;;;;5010078;28;20124;-70
2022/03/29 00:17:47;;;;;;;27.30;16.75;;;;;;;;;;5004473;28;20120;-70
2022/03/29 00:20:17;;;;;;;29.63;16.67;;;7.10;99.90;;;;;;5006905;28;20041;-70
2022/03/29 00:22:43;;;;;;;31.58;17.00;;;7.20;99.90;;;;;;4993596;28;20050;-70
2022/03/29 00:25:09;;;;;;;37.85;18.70;;;7.20;99.90;;;;;;5005004;28;20550;-69
2022/03/29 00:27:35;;;;;;;27.75;16.90;;;7.40;99.90;;;;;;5031062;28;20072;-69
2022/03/29 00:30:02;;;;;;;30.67;18.13;;;7.30;99.90;;;;;;5012721;28;20072;-70
2022/03/29 00:32:27;;;;;;;29.75;17.95;;;7.20;99.90;;;;;;4995765;28;20187;-70
2022/03/29 00:34:53;;;;;;;33.58;18.60;;;7.30;99.90;;;;;;4994049;28;20512;-70
2022/03/29 00:37:19;;;;;;;27.00;17.08;;;;;;;;;;4993672;28;20041;-70
2022/03/29 00:39:45;;;;;;;27.10;16.60;;;;;;;;;;5010853;28;20069;-69
2022/03/29 00:42:11;;;;;;;30.10;17.45;;;;;;;;;;4997348;28;20041;-71
2022/03/29 00:44:38;;;;;;;28.80;17.38;;;7.40;99.90;;;;;;5015274;28;20038;-70
2022/03/29 00:47:04;;;;;;;37.90;18.88;;;7.40;99.90;;;;;;4997274;28;20095;-69
2022/03/29 00:49:30;;;;;;;27.88;17.23;;;7.50;99.90;;;;;;4997653;28;20591;-69
2022/03/29 00:51:59;;;;;;;28.85;17.10;;;7.40;99.90;;;;;;5034664;28;20040;-68
2022/03/29 00:54:26;;;;;;;31.08;18.20;;;7.40;99.90;;;;;;5034582;28;20038;-68
2022/03/29 00:56:52;;;;;;;31.48;17.42;;;;;;;;;;5034506;28;20192;-70
2022/03/29 00:59:18;;;;;;;29.58;16.85;;;7.40;99.90;;;;;;5015920;28;20055;-70
2022/03/29 01:01:44;;;;;;;27.60;15.85;;;7.40;99.90;;;;;;5016728;28;20037;-71
2022/03/29 01:04:10;;;;;;;29.48;17.73;;;7.40;99.90;;;;;;5016520;28;20572;-69
2022/03/29 01:06:38;;;;;;;28.80;15.82;;;;;;;;;;5000382;28;20033;-68
2022/03/29 01:09:04;;;;;;;24.95;15.60;;;7.40;99.90;;;;;;5033844;28;20125;-69
2022/03/29 01:11:31;;;;;;;26.42;15.95;;;7.50;99.90;;;;;;5015839;28;20124;-69
2022/03/29 01:13:57;;;;;;;27.80;15.80;;;;;;;;;;4999886;28;20495;-69
2022/03/29 01:19:11;;;;;;;27.63;15.90;;;7.20;99.90;;;;;;5033570;28;20065;-68
2022/03/29 01:21:39;;;;;;;28.27;15.88;;;7.50;99.90;;;;;;5016169;28;20057;-69
2022/03/29 01:24:05;;;;;;;30.02;15.55;;;;;;;;;;5033723;28;20133;-69
2022/03/29 01:26:32;;;;;;;24.92;15.75;;;;;;;;;;5016079;28;20045;-70
2022/03/29 01:28:58;;;;;;;25.55;15.73;;;7.60;99.90;;;;;;5015852;28;20063;-69
2022/03/29 01:31:25;;;;;;;33.90;16.65;;;7.40;99.90;;;;;;5016100;28;20403;-69
2022/03/29 01:33:50;;;;;;;26.13;16.65;;;7.50;99.90;;;;;;5033949;28;20041;-68
2022/03/29 01:36:16;;;;;;;26.38;14.55;;;7.60;99.90;;;;;;5016074;28;20506;-69
2022/03/29 01:38:42;;;;;;;27.77;17.38;;;7.30;99.90;;;;;;5015851;28;20072;-69
2022/03/29 01:41:09;;;;;;;26.92;15.38;;;7.40;99.90;;;;;;5033061;28;20049;-69
2022/03/29 01:43:35;;;;;;;33.20;17.52;;;7.50;99.90;;;;;;5033346;28;20492;-69
2022/03/29 01:46:01;;;;;;;27.98;16.83;;;7.20;99.90;;;;;;5016106;28;20041;-69
2022/03/29 01:48:26;;;;;;;28.23;17.25;;;7.30;99.90;;;;;;5033626;28;20037;-69
2022/03/29 01:50:53;;;;;;;38.00;18.08;;;;;;;;;;5032208;28;20033;-70
2022/03/29 01:53:24;;;;;;;29.35;17.20;;;7.50;99.90;;;;;;5014362;28;20038;-69
2022/03/29 01:55:54;;;;;;;28.52;16.85;;;7.40;99.90;;;;;;5015707;28;20037;-68
2022/03/29 01:58:20;;;;;;;28.38;17.67;;;7.50;99.90;;;;;;5015827;28;20049;-68
2022/03/29 02:00:45;;;;;;;32.05;18.40;;;7.30;99.90;;;;;;5014838;28;20065;-71
2022/03/29 02:03:11;;;;;;;33.42;18.05;;;;;;;;;;5033304;28;20414;-70
2022/03/29 02:05:37;;;;;;;29.90;16.90;;;7.30;99.90;;;;;;5015300;28;20095;-68
2022/03/29 02:08:03;;;;;;;33.30;17.73;;;;;;;;;;5015482;28;20045;-70
2022/03/29 02:10:30;;;;;;;29.98;17.20;;;;;;;;;;5032301;28;20508;-69
2022/03/29 02:12:56;;;;;;;31.80;17.35;;;;;;;;;;5044072;28;20033;-70
2022/03/29 02:15:22;;;;;;;27.45;16.80;;;;;;;;;;5052871;28;20181;-70
2022/03/29 02:17:51;;;;;;;26.67;16.88;;;7.30;99.90;;;;;;5035008;28;20560;-69
2022/03/29 02:20:18;;;;;;;28.75;16.63;;;7.30;99.90;;;;;;5051991;28;20037;-69
2022/03/29 02:22:44;;;;;;;27.45;16.30;;;7.20;99.90;;;;;;5034815;28;20178;-69
2022/03/29 02:25:13;;;;;;;28.27;17.23;;;7.20;99.90;;;;;;5021274;28;20045;-68
2022/03/29 02:27:45;;;;;;;27.70;16.63;;;7.30;99.90;;;;;;5015286;28;20430;-69
2022/03/29 02:30:15;;;;;;;31.30;17.55;;;7.20;99.90;;;;;;5014379;28;20431;-69
2022/03/29 02:32:41;;;;;;;33.17;16.83;;;7.10;99.90;;;;;;5032684;28;20046;-69
2022/03/29 02:35:07;;;;;;;33.28;17.48;;;7.40;99.90;;;;;;5032655;28;20045;-69
2022/03/29 02:37:33;;;;;;;26.63;15.20;;;7.40;99.90;;;;;;5015006;28;20051;-69
2022/03/29 02:39:59;;;;;;;27.80;16.35;;;7.30;99.90;;;;;;4997583;28;20041;-69
2022/03/29 02:42:25;;;;;;;28.98;15.73;;;;;;;;;;5032519;28;20116;-69
2022/03/29 02:44:51;;;;;;;32.92;16.13;;;;;;;;;;5014777;28;20041;-69
2022/03/29 02:47:17;;;;;;;28.42;16.23;;;7.30;99.90;;;;;;5014722;28;20047;-69
2022/03/29 02:49:42;;;;;;;30.67;15.40;;;7.20;99.90;;;;;;5013844;28;20126;-69
2022/03/29 02:52:08;;;;;;;27.00;15.43;;;7.30;99.90;;;;;;5032237;28;20068;-68
2022/03/29 02:54:35;;;;;;;28.20;15.52;;;7.10;99.90;;;;;;5032296;28;20459;-69
2022/03/29 02:57:00;;;;;;;27.33;16.38;;;7.00;99.90;;;;;;5014467;28;20049;-69
2022/03/29 02:59:27;;;;;;;28.98;15.75;;;;;;;;;;5013610;28;20561;-69
2022/03/29 03:01:52;;;;;;;29.33;15.32;;;7.20;99.90;;;;;;4997975;28;20041;-69
2022/03/29 03:04:18;;;;;;;28.67;16.85;;;;;;;;;;5031288;28;20045;-69
2022/03/29 03:06:44;;;;;;;32.60;16.02;;;;;;;;;;4997993;28;20526;-69
2022/03/29 03:09:10;;;;;;;31.42;15.48;;;7.10;99.90;;;;;;5013838;28;20160;-68
2022/03/29 03:11:36;;;;;;;34.05;16.05;;;7.20;99.90;;;;;;5022067;28;20040;-68
2022/03/29 03:14:01;;;;;;;34.58;17.38;;;7.10;99.90;;;;;;5026051;28;20045;-69
2022/03/29 03:16:27;;;;;;;32.15;16.48;;;7.00;99.90;;;;;;5034138;28;20040;-69
2022/03/29 03:18:53;;;;;;;29.63;15.73;;;;;;;;;;5051269;28;20052;-69
2022/03/29 03:21:19;;;;;;;30.92;16.05;;;;;;;;;;5041603;22;20049;-69
2022/03/29 03:23:45;;;;;;;31.15;15.98;;;;;;;;;;5033450;28;20124;-70
2022/03/29 03:26:11;;;;;;;34.25;15.60;;;;;;;;;;5017326;28;20037;-70
2022/03/29 03:28:37;;;;;;;32.78;17.08;;;;;;;;;;5033521;28;20033;-70
2022/03/29 03:31:03;;;;;;;30.40;15.82;;;;;;;;;;5032623;28;20048;-70
2022/03/29 03:33:29;;;;;;;31.85;17.58;;;;;;;;;;5000910;28;20036;-70
2022/03/29 03:35:55;;;;;;;32.80;17.40;;;;;;;;;;5051711;28;20029;-70
2022/03/29 03:38:22;;;;;;;30.95;15.85;;;7.10;99.90;;;;;;5033745;28;20041;-70
2022/03/29 03:40:47;;;;;;;30.08;16.85;;;7.00;99.90;;;;;;5050626;28;20107;-70
2022/03/29 03:43:13;;;;;;;31.48;16.30;;;;;;;;;;5016844;28;20033;-70
2022/03/29 03:45:39;;;;;;;32.45;17.38;;;7.20;99.90;;;;;;5033230;28;20129;-70
2022/03/29 03:48:05;;;;;;;37.25;17.33;;;7.30;99.90;;;;;;5033255;28;20562;-70
2022/03/29 03:50:32;;;;;;;32.28;17.75;;;;;;;;;;5050324;28;20044;-70
2022/03/29 03:53:00;;;;;;;32.20;18.02;;;;;;;;;;5033478;28;20053;-70
2022/03/29 03:55:25;;;;;;;31.15;17.38;;;7.10;99.90;;;;;;5033221;28;20190;-70
2022/03/29 03:57:51;;;;;;;34.80;18.10;;;;;;;;;;5016660;28;20511;-70
2022/03/29 04:00:21;;;;;;;37.25;17.38;;;5.70;99.90;;;;;;5050323;28;20041;-70
2022/03/29 04:02:49;;;;;;;33.30;17.83;;;7.10;99.90;;;;;;5016505;28;20036;-70
2022/03/29 04:05:15;;;;;;;30.17;18.08;;;;;;;;;;5033080;28;20112;-70
2022/03/29 04:07:41;;;;;;;34.92;17.52;;;7.00;99.90;;;;;;5051218;28;20467;-70
2022/03/29 04:10:07;;;;;;;32.65;18.45;;;6.90;99.90;;;;;;5032166;28;20060;-70
2022/03/29 04:12:34;;;;;;;32.42;16.80;;;;;;;;;;5029296;28;20084;-69
2022/03/29 04:15:00;;;;;;;32.85;17.65;;;;;;;;;;5071790;28;20048;-70
2022/03/29 04:17:26;;;;;;;34.67;18.08;;;;;;;;;;5074834;28;20036;-70
2022/03/29 04:19:52;;;;;;;35.15;18.50;;;;;;;;;;5056515;28;20044;-70
2022/03/29 04:22:18;;;;;;;38.53;18.50;;;7.00;99.90;;;;;;5057545;28;20643;-70
2022/03/29 04:24:47;;;;;;;46.50;19.75;;;7.10;99.90;;;;;;5047290;28;20051;-70
2022/03/29 04:27:13;;;;;;;29.75;17.33;;;;;;;;;;5054766;28;20041;-70
2022/03/29 04:29:39;;;;;;;38.35;19.88;;;7.00;99.90;;;;;;5054054;28;20411;-70
2022/03/29 04:32:05;;;;;;;33.05;19.13;;;;;;;;;;5054922;28;20099;-70
2022/03/29 04:34:31;;;;;;;34.38;19.65;;;;;;;;;;5037472;28;20049;-70
2022/03/29 04:37:00;;;;;;;33.70;17.90;;;;;;;;;;5037703;28;20047;-70
2022/03/29 04:39:26;;;;;;;37.45;19.95;;;;;;;;;;5035607;28;20045;-70
2022/03/29 04:41:53;;;;;;;37.95;19.10;;;;;;;;;;5036716;28;20044;-69
2022/03/29 04:44:19;;;;;;;34.95;18.10;;;;;;;;;;5036545;28;20072;-70
2022/03/29 04:46:45;;;;;;;37.17;19.85;;;;;;;;;;5054591;28;20036;-70
2022/03/29 04:49:11;;;;;;;38.08;20.08;;;;;;;;;;5035663;28;20128;-69
2022/03/29 04:51:37;;;;;;;36.40;20.02;;;;;;;;;;5036488;28;20041;-70
2022/03/29 04:54:03;;;;;;;40.15;19.67;;;7.10;99.90;;;;;;5020010;28;20047;-69
2022/03/29 04:56:29;;;;;;;36.58;19.92;;;6.90;99.90;;;;;;5036541;28;20379;-70
2022/03/29 04:58:55;;;;;;;35.40;19.27;;;;;;;;;;5019571;28;20102;-69
2022/03/29 05:01:21;;;;;;;34.95;19.00;;;;;;;;;;5035575;28;20093;-70
2022/03/29 05:03:47;;;;;;;36.50;19.02;;;;;;;;;;5036249;28;20037;-70
2022/03/29 05:06:13;;;;;;;34.47;18.80;;;;;;;;;;5054139;28;20040;-70
2022/03/29 05:08:39;;;;;;;37.13;18.38;;;;;;;;;;5019471;28;20052;-70
2022/03/29 05:11:05;;;;;;;35.05;19.30;;;7.10;99.90;;;;;;5057760;28;20032;-70
2022/03/29 05:13:31;;;;;;;36.03;19.20;;;;;;;;;;5056002;28;20036;-70
2022/03/29 05:15:57;;;;;;;42.08;20.98;;;;;;;;;;5055650;28;20048;-70
2022/03/29 05:18:23;;;;;;;35.70;18.98;;;;;;;;;;5073815;28;20119;-70
2022/03/29 05:20:49;;;;;;;37.55;20.05;;;;;;;;;;5054806;28;20044;-70
2022/03/29 05:23:18;;;;;;;37.08;20.05;;;7.00;99.90;;;;;;5073515;28;20669;-70
2022/03/29 05:25:44;;;;;;;42.97;20.42;;;;;;;;;;5036796;28;20067;-70
2022/03/29 05:28:10;;;;;;;40.15;20.25;;;;;;;;;;5035809;28;20099;-70
2022/03/29 05:30:36;;;;;;;45.83;21.23;;;7.10;99.90;;;;;;5034964;28;20043;-70
2022/03/29 05:33:03;;;;;;;40.80;19.58;;;6.90;99.90;;;;;;5019294;28;20032;-70
2022/03/29 05:35:30;;;;;;;43.75;19.77;;;7.20;99.90;;;;;;5035898;28;20075;-70
2022/03/29 05:37:57;;;;;;;36.28;18.77;;;7.00;99.90;;;;;;5035471;28;20521;-69
2022/03/29 05:40:24;;;;;;;37.50;19.67;;;7.20;99.90;;;;;;5052598;28;20048;-70
2022/03/29 05:42:51;;;;;;;34.88;20.58;;;;;;;;;;5053129;28;20041;-70
2022/03/29 05:45:17;;;;;;;37.58;20.20;;;;;;;;;;5035238;28;20355;-69
2022/03/29 05:50:27;;;;;;;34.80;19.23;;;7.20;99.90;;;;;;5034781;28;20033;-69
2022/03/29 05:52:55;;;;;;;43.38;21.88;;;;;;;;;;5018540;28;20033;-70
2022/03/29 05:55:20;;;;;;;41.47;20.20;;;7.00;99.90;;;;;;5018323;28;20581;-70
2022/03/29 05:57:49;;;;;;;43.33;21.38;;;;;;;;;;5052768;28;20108;-70
2022/03/29 06:00:16;;;;;;;43.38;21.38;;;7.20;99.90;;;;;;5020696;28;20049;-69
2022/03/29 06:02:42;;;;;;;37.35;21.05;;;;;;;;;;5055283;28;20041;-70
2022/03/29 06:05:09;;;;;;;40.22;22.40;;;;;;;;;;5031417;28;20540;-69
2022/03/29 06:07:35;;;;;;;36.50;20.58;;;7.20;99.90;;;;;;5048886;28;20041;-68
2022/03/29 06:10:04;;;;;;;38.40;19.77;;;;;;;;;;5047865;28;20045;-66
2022/03/29 06:12:30;;;;;;;44.90;22.30;;;;;;;;;;5043059;28;20037;-69
2022/03/29 06:14:56;;;;;;;43.25;22.00;;;;;;;;;;5031192;28;20060;-68
2022/03/29 06:17:22;;;;;;;38.72;22.05;;;;;;;;;;5034599;28;20050;-68
2022/03/29 06:19:48;;;;;;;43.63;22.58;;;;;;;;;;5051669;28;20036;-69
2022/03/29 06:22:14;;;;;;;40.15;20.20;;;;;;;;;;5049115;28;20410;-68
2022/03/29 06:24:40;;;;;;;39.47;19.65;;;;;;;;;;5034121;28;20137;-69
2022/03/29 06:27:06;;;;;;;45.40;21.80;;;;;;;;;;5039651;28;20048;-69
2022/03/29 06:29:34;;;;;;;37.95;20.27;;;;;;;;;;5015731;28;20103;-69
2022/03/29 06:32:00;;;;;;;42.35;22.52;;;;;;;;;;5037704;28;20151;-69
2022/03/29 06:34:26;;;;;;;43.92;21.52;;;7.40;99.90;;;;;;5044996;28;20168;-67
2022/03/29 06:36:52;;;;;;;41.67;21.38;;;;;;;;;;5036454;28;20100;-69
2022/03/29 06:39:18;;;;;;;48.53;23.13;;;7.30;99.90;;;;;;5011085;28;20217;-68
2022/03/29 06:41:44;;;;;;;41.88;22.30;;;7.30;99.90;;;;;;5032192;28;20046;-69
2022/03/29 06:44:10;;;;;;;44.75;21.50;;;;;;;;;;5014769;28;20510;-69
2022/03/29 06:46:37;;;;;;;39.47;21.08;;;7.30;99.90;;;;;;5014850;28;20483;-69
2022/03/29 06:49:03;;;;;;;37.05;20.83;;;7.50;99.90;;;;;;5012537;28;20029;-68
2022/03/29 06:51:33;;;;;;;40.55;21.35;;;;;;;;;;5014240;28;20037;-69
2022/03/29 06:53:59;;;;;;;40.88;22.58;;;7.50;99.90;;;;;;5046186;28;20075;-69
2022/03/29 06:56:25;;;;;;;47.53;21.67;;;7.60;99.90;;;;;;5028894;28;20032;-69
2022/03/29 06:58:51;;;;;;;39.10;20.50;;;;;;;;;;5033816;28;20560;-68
2022/03/29 07:01:17;;;;;;;41.50;22.77;;;;;;;;;;5053212;28;20084;-69
2022/03/29 07:03:43;;;;;;;46.72;22.08;;;7.50;99.90;;;;;;5055532;28;20079;-69
2022/03/29 07:06:09;;;;;;;45.38;21.20;;;;;;;;;;5051779;28;20095;-69
2022/03/29 07:08:35;;;;;;;44.75;23.67;;;;;;;;;;5051389;28;20041;-69
2022/03/29 07:11:16;;;;;;;43.13;21.23;;;7.30;99.90;;;;;;5051030;28;20041;-69
2022/03/29 07:13:44;;;;;;;42.15;21.60;;;7.40;99.90;;;;;;5051382;28;20402;-69
2022/03/29 07:16:11;;;;;;;40.85;21.65;;;7.60;99.90;;;;;;5052048;28;20051;-69
2022/03/29 07:18:37;;;;;;;42.92;21.85;;;;;;;;;;5033871;28;20041;-69
2022/03/29 07:21:03;;;;;;;45.28;22.45;;;;;;;;;;5033332;28;20044;-70
2022/03/29 07:23:32;;;;;;;40.45;21.85;;;;;;;;;;5051992;28;20120;-69
2022/03/29 07:25:58;;;;;;;39.83;21.55;;;;;;;;;;5051506;28;20539;-69
2022/03/29 07:28:23;;;;;;;41.63;21.10;;;7.70;99.90;;;;;;5033504;28;20128;-70
2022/03/29 07:30:50;;;;;;;43.67;22.50;;;7.60;99.90;;;;;;5032904;28;20120;-69
2022/03/29 07:33:19;;;;;;;38.53;21.88;;;7.60;99.90;;;;;;5033322;28;20111;-69
2022/03/29 07:35:45;;;;;;;46.85;22.95;;;;;;;;;;5051138;28;20059;-69
2022/03/29 07:38:12;;;;;;;39.58;21.38;;;7.80;99.90;;;;;;5033659;28;20485;-69
2022/03/29 07:40:38;;;;;;;43.38;21.77;;;7.60;99.90;;;;;;5050708;28;20048;-69
2022/03/29 07:43:05;;;;;;;38.20;21.20;;;7.70;99.90;;;;;;5033351;28;20063;-69
2022/03/29 07:45:31;;;;;;;40.90;21.80;;;;;;;;;;5050517;28;20120;-70
2022/03/29 07:47:58;;;;;;;45.33;21.55;;;;;;;;;;5032909;28;20083;-70
2022/03/29 07:50:27;;;;;;;40.35;20.83;;;;;;;;;;5032304;28;20052;-70
2022/03/29 07:52:54;;;;;;;42.05;22.77;;;;;;;;;;5051001;28;20040;-69
2022/03/29 07:55:19;;;;;;;44.28;20.25;;;7.80;99.90;;;;;;5033404;28;20128;-70
2022/03/29 07:57:45;;;;;;;50.40;22.17;;;;;;;;;;5050944;28;20174;-69
2022/03/29 08:00:32;;;;;;;39.75;19.88;;;7.80;99.90;;;;;;5032389;28;20491;-69
2022/03/29 08:02:59;;;;;;;42.08;22.27;;;7.90;99.90;;;;;;5032993;28;20076;-69
2022/03/29 08:05:26;;;;;;;40.05;21.25;;;;;;;;;;5032887;28;20154;-69
2022/03/29 08:07:51;;;;;;;39.80;21.08;;;8.00;99.90;;;;;;5050682;28;20044;-69
2022/03/29 08:10:17;;;;;;;41.08;20.42;;;;;;;;;;5032275;28;20040;-69
2022/03/29 08:12:44;;;;;;;41.45;20.42;;;8.20;99.90;;;;;;5049713;28;20037;-69
2022/03/29 08:15:10;;;;;;;39.58;21.58;;;;;;;;;;5049457;28;20049;-69
2022/03/29 08:17:37;;;;;;;43.58;20.63;;;;;;;;;;5034070;28;20501;-69
2022/03/29 08:20:05;;;;;;;44.05;20.35;;;8.10;99.90;;;;;;5049955;28;20052;-69
2022/03/29 08:22:32;;;;;;;42.50;20.88;;;8.10;99.90;;;;;;5050680;28;20044;-69
2022/03/29 08:24:58;;;;;;;44.40;20.13;;;;;;;;;;5032865;28;20072;-70
2022/03/29 08:27:25;;;;;;;36.60;18.88;;;;;;;;;;5032421;28;20040;-69
2022/03/29 08:29:51;;;;;;;43.80;19.67;;;;;;;;;;5031843;28;20045;-70
2022/03/29 08:32:17;;;;;;;39.17;20.02;;;8.30;99.90;;;;;;5032761;28;20124;-70
2022/03/29 08:34:43;;;;;;;46.50;19.35;;;;;;;;;;5050827;28;20130;-69
2022/03/29 08:37:09;;;;;;;39.47;19.27;;;8.40;99.90;;;;;;5032764;28;20514;-70
2022/03/29 08:39:35;;;;;;;44.92;20.88;;;;;;;;;;5031729;28;20130;-70
2022/03/29 08:42:17;;;;;;;39.13;20.63;;;8.20;99.90;;;;;;5050527;28;20063;-70
2022/03/29 08:44:43;;;;;;;40.63;20.27;;;;;;;;;;5050736;28;20068;-69
2022/03/29 08:47:10;;;;;;;38.92;19.95;;;8.30;99.90;;;;;;5032603;28;20044;-69
2022/03/29 08:49:36;;;;;;;49.15;22.48;;;8.50;99.90;;;;;;5015217;28;20044;-69
2022/03/29 08:52:02;;;;;;;41.80;20.88;;;;;;;;;;5032775;28;20041;-69
2022/03/29 08:54:28;;;;;;;40.63;20.20;;;;;;;;;;5050907;28;20052;-70
2022/03/29 08:56:55;;;;;;;41.58;18.88;;;;;;;;;;5033279;28;20037;-69
2022/03/29 08:59:21;;;;;;;42.28;20.55;;;;;;;;;;5050093;28;20413;-70
2022/03/29 09:01:47;;;;;;;47.85;21.08;;;8.80;99.90;;;;;;5034633;28;20127;-70
2022/03/29 09:04:15;;;;;;;50.03;21.13;;;8.50;99.90;;;;;;5021012;28;20407;-70
2022/03/29 09:06:50;;;;;;;46.47;20.17;;;8.70;99.90;;;;;;5020981;28;20158;-70
2022/03/29 09:09:23;;;;;;;37.92;20.70;;;8.40;99.90;;;;;;5053148;28;20052;-69
2022/03/29 09:11:50;;;;;;;55.63;22.42;;;8.70;99.90;;;;;;5054134;28;20044;-70
2022/03/29 09:14:18;;;;;;;45.10;20.73;;;8.80;99.90;;;;;;5036694;28;20059;-69
2022/03/29 09:16:44;;;;;;;39.10;20.55;;;;;;;;;;5054611;28;20045;-70
2022/03/29 09:19:10;;;;;;;43.35;21.40;;;9.10;99.90;;;;;;5053361;28;20087;-69
2022/03/29 09:21:43;;;;;;;38.30;21.35;;;9.20;99.90;;;;;;5060404;22;20044;-67
2022/03/29 09:24:12;;;;;;;37.05;20.00;;;9.30;99.90;;;;;;5016497;28;20125;-69
2022/03/29 09:26:44;;;;;;;34.83;18.50;;;9.50;99.90;;;;;;5016643;28;20044;-70
2022/03/29 09:29:12;;;;;;;40.70;21.90;;;9.60;99.90;;;;;;5015745;28;20077;-69
2022/03/29 09:31:39;;;;;;;40.55;21.40;;;9.40;99.90;;;;;;5033534;28;20410;-70
2022/03/29 09:34:20;;;;;;;40.72;20.33;;;9.80;99.90;;;;;;5015466;28;20075;-70
2022/03/29 09:36:48;;;;;;;37.78;20.08;;;9.60;99.90;;;;;;5016131;28;20507;-69
2022/03/29 09:39:30;;;;;;;36.75;19.88;;;9.60;99.90;;;;;;5015225;28;20037;-68
2022/03/29 09:41:58;;;;;;;47.35;20.30;;;9.70;99.90;;;;;;5015974;28;20091;-69
2022/03/29 09:44:45;;;;;;;36.10;19.27;;;9.80;99.90;;;;;;4998488;28;20037;-68
2022/03/29 09:47:14;;;;;;;35.97;19.25;;;9.60;99.90;;;;;;5033755;28;20037;-69
2022/03/29 09:49:53;;;;;;;32.30;18.63;;;9.80;99.90;;;;;;5014720;28;20083;-68
2022/03/29 09:52:23;;;;;;;38.85;18.05;;;9.90;99.90;;;;;;5048145;28;20048;-69
2022/03/29 09:55:07;;;;;;;37.17;19.70;;;9.90;99.90;;;;;;5053580;28;20076;-69
2022/03/29 09:57:38;;;;;;;37.33;19.02;;;9.90;99.90;;;;;;5035464;28;20041;-68
2022/03/29 10:00:09;;;;;;;39.90;21.02;;;10.00;99.90;;;;;;5052344;28;20044;-70
2022/03/29 10:02:37;;;;;;;38.25;19.13;;;10.00;99.90;;;;;;5040228;28;20496;-69
2022/03/29 10:05:03;;;;;;;38.63;18.50;;;10.20;99.90;;;;;;5033477;28;20100;-69
2022/03/29 10:07:37;;;;;;;43.28;15.63;;;9.90;99.90;;;;;;5033150;28;20037;-69
2022/03/29 10:10:06;;;;;;;31.02;15.70;;;10.00;99.90;;;;;;5025573;28;20164;-69
2022/03/29 10:12:33;;;;;;;33.95;15.35;;;10.30;99.90;;;;;;5019400;28;20513;-69
2022/03/29 10:14:59;;;;;;;36.10;14.63;;;;;;;;;;5003167;28;20045;-69
2022/03/29 10:17:25;;;;;;;32.40;15.75;;;;;;;;;;5029195;28;20453;-69
2022/03/29 10:19:51;;;;;;;42.78;15.55;;;10.60;99.90;;;;;;5010389;28;20061;-70
2022/03/29 10:22:17;;;;;;;35.28;14.85;;;;;;;;;;5025171;28;20045;-70
2022/03/29 10:24:43;;;;;;;33.42;15.02;;;;;;;;;;5020601;28;20041;-69
2022/03/29 10:27:09;;;;;;;27.60;13.63;;;10.20;99.90;;;;;;5028929;28;20167;-67
2022/03/29 10:29:35;;;;;;;30.25;14.25;;;;;;;;;;5026887;28;20460;-68
2022/03/29 10:32:08;;;;;;;31.35;12.65;;;10.10;99.90;;;;;;5011008;28;20080;-69
2022/03/29 10:34:40;;;;;;;32.28;12.77;;;9.90;99.90;;;;;;5027549;28;20049;-71
2022/03/29 10:37:18;;;;;;;28.77;12.25;;;10.20;99.90;;;;;;5028517;28;20602;-69
2022/03/29 10:39:47;;;;;;;31.35;11.98;;;;;;;;;;5026373;28;20444;-70
2022/03/29 10:42:36;;;;;;;26.25;10.55;;;10.40;99.90;;;;;;5010735;28;20045;-71
2022/03/29 10:45:17;;;;;;;23.52;11.82;;;10.50;99.90;;;;;;5027215;28;20049;-69
2022/03/29 10:47:48;;;;;;;30.10;11.32;;;10.70;99.90;;;;;;5026887;28;20577;-69
2022/03/29 10:50:15;;;;;;;25.27;10.63;;;;;;;;;;5009823;28;20055;-69
2022/03/29 10:52:47;;;;;;;28.30;11.25;;;10.80;99.90;;;;;;5045856;28;20445;-70
2022/03/29 10:55:16;;;;;;;32.85;10.93;;;10.90;99.90;;;;;;5035576;28;20084;-68
2022/03/29 10:58:02;;;;;;;31.67;11.35;;;11.00;99.90;;;;;;5002123;28;20534;-69
2022/03/29 11:00:31;;;;;;;33.88;10.73;;;;;;;;;;5026656;28;20041;-69
2022/03/29 11:03:13;;;;;;;25.70;10.82;;;10.70;99.90;;;;;;5010284;28;20045;-69
2022/03/29 11:06:08;;;;;;;24.98;10.52;;;11.10;99.90;;;;;;5028096;28;20049;-69
2022/03/29 11:08:36;;;;;;;26.25;10.88;;;11.00;99.90;;;;;;5010681;28;20029;-70
2022/03/29 11:11:02;;;;;;;25.23;11.07;;;11.30;99.90;;;;;;5028604;28;20411;-70
2022/03/29 11:13:37;;;;;;;30.08;10.48;;;10.40;99.90;;;;;;5011632;28;20431;-70
2022/03/29 11:16:25;;;;;;;23.02;10.63;;;10.60;99.90;;;;;;5010958;28;20045;-70
2022/03/29 11:18:51;;;;;;;27.63;9.32;;;;;;;;;;5023396;28;20091;-72
2022/03/29 11:21:29;;;;;;;27.67;10.35;;;11.20;99.90;;;;;;5030375;28;20045;-71
2022/03/29 11:23:59;;;;;;;42.95;13.48;;;10.80;99.90;;;;;;5025354;28;20065;-70
2022/03/29 11:26:25;;;;;;;25.95;12.82;;;;;;;;;;5004355;28;20099;-69
2022/03/29 11:28:56;;;;;;;31.77;13.07;;;10.70;99.90;;;;;;5011412;28;20384;-69
2022/03/29 11:31:25;;;;;;;26.35;12.25;;;10.70;99.90;;;;;;5005734;28;20059;-70
2022/03/29 11:33:55;;;;;;;37.15;13.50;;;10.90;99.90;;;;;;5008982;28;20034;-71
2022/03/29 11:36:22;;;;;;;28.83;11.65;;;11.10;99.90;;;;;;4987469;28;20033;-70
2022/03/29 11:38:48;;;;;;;27.88;13.32;;;;;;;;;;5031557;28;20038;-70
2022/03/29 11:41:29;;;;;;;32.25;13.32;;;11.20;99.90;;;;;;4996764;28;20085;-71
2022/03/29 11:44:00;;;;;;;23.80;10.73;;;10.90;99.90;;;;;;5010062;28;20449;-70
2022/03/29 11:46:52;;;;;;;34.22;10.70;;;11.00;99.90;;;;;;5023892;28;20514;-70
2022/03/29 11:49:19;;;;;;;25.98;11.38;;;10.80;99.90;;;;;;5012039;28;20025;-70
2022/03/29 11:52:05;;;;;;;34.00;11.27;;;10.90;99.90;;;;;;5022663;28;20033;-70
2022/03/29 11:54:30;;;;;;;25.73;10.02;;;10.90;99.90;;;;;;5033389;28;20044;-70
2022/03/29 11:56:56;;;;;;;28.98;10.02;;;10.90;99.90;;;;;;5033281;28;20048;-70
2022/03/29 11:59:22;;;;;;;26.95;10.70;;;;;;;;;;5050220;28;20123;-71
2022/03/29 12:01:47;;;;;;;29.58;9.77;;;11.10;99.90;;;;;;5016618;28;20087;-70
2022/03/29 12:04:13;;;;;;;26.70;9.55;;;11.30;99.90;;;;;;5042491;28;20041;-70
2022/03/29 12:06:47;;;;;;;36.53;11.30;;;11.20;99.90;;;;;;5031241;28;20033;-71
2022/03/29 12:09:21;;;;;;;27.80;10.68;;;10.80;99.90;;;;;;4996230;28;20086;-70
2022/03/29 12:11:46;;;;;;;;;;;11.00;99.90;;;;;;5013818;28;20072;-70
2022/03/29 12:14:21;;;;;;;22.77;10.02;;;11.00;99.90;;;;;;5012239;28;19928;-71
2022/03/29 12:17:04;;;;;;;26.50;9.90;;;10.80;99.90;;;;;;5025100;28;20042;-70
2022/03/29 12:19:32;;;;;;;26.83;9.68;;;10.90;99.90;;;;;;5027347;28;20132;-71
2022/03/29 12:22:03;;;;;;;23.25;9.13;;;10.70;99.90;;;;;;5030797;28;20045;-70
2022/03/29 12:24:39;;;;;;;32.03;9.50;;;10.80;99.90;;;;;;5012950;28;20034;-70
2022/03/29 12:27:14;;;;;;;24.75;10.57;;;10.60;99.90;;;;;;5013146;28;20412;-71
2022/03/29 12:29:47;;;;;;;19.10;8.02;;;10.40;99.90;;;;;;5012235;28;20033;-70
2022/03/29 12:32:13;;;;;;;23.15;8.95;;;10.60;99.90;;;;;;5030586;28;20069;-70
2022/03/29 12:34:40;;;;;;;35.60;11.75;;;10.60;99.90;;;;;;5013314;28;20177;-71
2022/03/29 12:37:13;;;;;;;23.13;10.73;;;10.70;99.90;;;;;;5015601;28;20399;-70
2022/03/29 12:39:41;;;;;;;34.58;12.10;;;10.50;99.90;;;;;;5032575;28;20076;-70
2022/03/29 12:42:16;;;;;;;34.58;13.90;;;10.60;99.90;;;;;;5001161;28;20610;-71
2022/03/29 12:44:48;;;;;;;23.63;11.82;;;;;;;;;;5016480;28;20119;-71
2022/03/29 12:47:15;;;;;;;30.02;11.07;;;10.70;99.90;;;;;;5034283;28;20052;-71
2022/03/29 12:49:42;;;;;;;24.52;10.50;;;10.60;99.90;;;;;;5032557;28;20037;-70
2022/03/29 12:52:09;;;;;;;24.98;10.57;;;10.50;99.90;;;;;;5029613;28;20044;-71
2022/03/29 12:54:41;;;;;;;31.02;10.88;;;10.40;99.90;;;;;;5054313;28;20051;-71
2022/03/29 12:57:12;;;;;;;32.58;10.60;;;10.50;99.90;;;;;;5054507;28;20055;-71
2022/03/29 12:59:40;;;;;;;32.00;11.30;;;;;;;;;;5053500;28;20083;-71
2022/03/29 13:02:23;;;;;;;27.90;10.73;;;10.80;99.90;;;;;;5036499;28;20059;-70
2022/03/29 13:04:52;;;;;;;32.10;10.98;;;10.90;99.90;;;;;;5054113;28;20041;-71
2022/03/29 13:07:41;;;;;;;24.30;9.90;;;11.10;99.90;;;;;;5019606;28;20495;-70
2022/03/29 13:10:42;;;;;;;29.67;11.38;;;10.90;99.90;;;;;;5035509;28;20491;-71
2022/03/29 13:13:24;;;;;;;20.85;10.75;;;11.50;99.90;;;;;;5053825;28;20037;-70
2022/03/29 13:15:55;;;;;;;21.10;10.73;;;11.30;99.90;;;;;;5052738;28;20379;-71
2022/03/29 13:18:38;;;;;;;25.67;10.90;;;11.50;99.90;;;;;;5052952;28;20399;-70
2022/03/29 13:21:24;;;;;;;30.67;10.60;;;;;;;;;;5012391;28;20435;-71